Time;durP1;ratioP1;P1;durP2;ratioP2;P2;SDS_P1;SDS_P2;PMS_P1;PMS_P2;Temp;Humidity;BMP_temperature;BMP_pressure;BME280_temperature;BME280_humidity;BME280_pressure;Samples;Min_cycle;Max_cycle;Signal;HPM_P1;HPM_P2
2021/05/05 00:00:46;;;;;;;8.00;1.77;;;;;;;7.40;85.58;99066.31;5061308;28;20072;-68
2021/05/05 00:03:12;;;;;;;3.08;1.17;;;;;;;7.54;85.27;99058.28;5054379;28;20224;-68
2021/05/05 00:05:39;;;;;;;4.85;1.42;;;;;;;7.46;85.33;99060.63;5055364;28;20048;-68
2021/05/05 00:08:06;;;;;;;4.90;1.10;;;;;;;7.53;85.13;99061.88;5055086;28;20204;-69
2021/05/05 00:10:34;;;;;;;2.90;0.90;;;;;;;7.44;85.84;99059.91;5059129;28;20539;-70
2021/05/05 00:13:01;;;;;;;2.25;1.08;;;;;;;7.46;85.71;99068.47;5057567;28;20580;-69
2021/05/05 00:15:27;;;;;;;3.95;1.23;;;;;;;7.61;85.48;99070.03;5039083;28;20051;-68
2021/05/05 00:17:54;;;;;;;6.78;1.60;;;;;;;7.67;84.24;99067.91;5038779;28;20072;-68
2021/05/05 00:20:21;;;;;;;7.68;1.80;;;;;;;7.72;84.47;99063.16;5034587;28;20041;-69
2021/05/05 00:22:49;;;;;;;7.95;1.38;;;;;;;7.70;84.22;99054.56;5065860;28;20048;-68
2021/05/05 00:25:16;;;;;;;6.30;1.60;;;;;;;7.59;83.93;99053.56;5058011;28;20049;-68
2021/05/05 00:27:43;;;;;;;3.90;1.40;;;;;;;7.56;84.71;99051.16;5060859;28;20077;-68
2021/05/05 00:30:10;;;;;;;4.55;1.35;;;;;;;7.43;84.06;99052.13;5060147;28;20049;-68
2021/05/05 00:32:38;;;;;;;5.22;1.20;;;;;;;7.22;85.93;99057.13;5025160;28;20144;-69
2021/05/05 00:35:06;;;;;;;3.20;1.20;;;;;;;7.01;87.49;99054.22;5054565;28;20112;-68
2021/05/05 00:37:32;;;;;;;4.05;1.60;;;;;;;6.83;88.51;99056.31;5063312;28;20046;-69
2021/05/05 00:39:59;;;;;;;7.95;1.55;;;;;;;6.78;88.47;99055.78;5056266;28;20076;-68
2021/05/05 00:42:26;;;;;;;5.90;1.25;;;;;;;6.78;88.50;99050.56;5057888;28;20095;-67
2021/05/05 00:44:57;;;;;;;6.32;1.48;;;;;;;6.75;88.00;99054.22;5052203;28;20078;-68
2021/05/05 00:47:27;;;;;;;4.50;1.20;;;;;;;6.72;88.71;99053.63;5063878;28;20057;-70
2021/05/05 00:49:54;;;;;;;5.53;1.38;;;;;;;6.61;90.26;99046.47;5061133;28;20405;-68
2021/05/05 00:52:21;;;;;;;4.78;1.15;;;;;;;6.66;89.50;99056.63;5062635;28;20044;-69
2021/05/05 00:54:48;;;;;;;6.53;1.40;;;;;;;6.71;89.30;99057.16;5061758;28;21596;-68
2021/05/05 00:57:15;;;;;;;5.80;1.40;;;;;;;6.74;88.59;99055.16;5067274;28;20152;-69
2021/05/05 00:59:43;;;;;;;3.13;1.20;;;;;;;6.65;89.23;99053.16;5055347;28;20519;-67
2021/05/05 01:02:10;;;;;;;10.63;1.83;;;;;;;6.60;89.28;99047.44;5058784;28;20048;-68
2021/05/05 01:04:37;;;;;;;3.05;1.20;;;;;;;6.57;89.73;99048.50;5057523;28;20059;-67
2021/05/05 01:07:04;;;;;;;5.65;1.40;;;;;;;6.66;89.73;99054.84;5072521;28;20056;-67
2021/05/05 01:09:31;;;;;;;5.35;1.17;;;;;;;6.70;89.22;99056.31;5064966;28;20056;-69
2021/05/05 01:11:57;;;;;;;6.65;1.10;;;;;;;6.84;88.08;99053.63;5061333;28;20048;-67
2021/05/05 01:14:24;;;;;;;6.57;1.20;;;;;;;6.87;87.80;99054.34;5058880;28;20056;-68
2021/05/05 01:16:51;;;;;;;5.82;1.27;;;;;;;7.02;87.84;99051.47;5049690;28;20528;-68
2021/05/05 01:19:18;;;;;;;4.97;1.33;;;;;;;7.16;86.34;99047.06;5045185;28;20176;-68
2021/05/05 01:21:45;;;;;;;3.30;1.08;;;;;;;7.10;86.53;99046.56;5049455;28;20140;-67
2021/05/05 01:24:11;;;;;;;6.60;1.38;;;;;;;7.01;87.61;99054.22;5031940;28;20053;-69
2021/05/05 01:26:39;;;;;;;4.30;1.48;;;;;;;6.95;87.28;99049.41;5051670;28;20143;-69
2021/05/05 01:29:07;;;;;;;4.20;1.27;;;;;;;7.10;86.30;99049.16;5035153;28;20045;-68
2021/05/05 01:31:33;;;;;;;5.03;1.35;;;;;;;7.03;86.32;99041.88;5039786;28;20065;-68
2021/05/05 01:34:00;;;;;;;3.10;1.13;;;;;;;6.93;86.19;99039.03;5064930;28;20045;-69
2021/05/05 01:36:35;;;;;;;6.72;1.45;;;;;;;6.84;86.75;99042.28;5061642;28;20597;-69
2021/05/05 01:39:04;;;;;;;5.22;1.05;;;;;;;6.79;86.40;99032.16;5050799;28;20133;-68
2021/05/05 01:41:31;;;;;;;4.72;1.23;;;;;;;6.75;86.31;99035.06;5055617;28;20057;-67
2021/05/05 01:43:58;;;;;;;5.20;1.30;;;;;;;6.58;87.16;99038.88;5049301;28;20253;-68
2021/05/05 01:46:25;;;;;;;4.90;1.40;;;;;;;6.50;87.97;99034.13;5050256;28;20121;-68
2021/05/05 01:48:51;;;;;;;6.15;1.60;;;;;;;6.51;87.09;99038.41;5068290;28;20112;-67
2021/05/05 01:51:18;;;;;;;6.18;1.40;;;;;;;6.62;86.94;99035.09;5066872;28;20095;-68
2021/05/05 01:53:44;;;;;;;3.17;1.17;;;;;;;6.59;87.03;99032.69;5060190;28;20060;-68
2021/05/05 01:56:11;;;;;;;7.03;1.42;;;;;;;6.51;87.28;99024.50;5064824;28;20131;-68
2021/05/05 01:58:38;;;;;;;9.25;3.08;;;;;;;6.58;86.60;99017.94;5053893;28;20064;-67
2021/05/05 02:01:05;;;;;;;9.05;1.73;;;;;;;6.58;87.14;99025.78;5056062;28;20147;-69
2021/05/05 02:03:31;;;;;;;8.40;1.48;;;;;;;6.73;86.81;99024.72;5047940;28;20537;-68
2021/05/05 02:05:58;;;;;;;7.85;1.27;;;;;;;6.66;87.25;99025.25;5047164;28;20040;-69
2021/05/05 02:08:25;;;;;;;7.15;1.60;;;;;;;6.69;87.43;99031.09;5044216;28;20148;-68
2021/05/05 02:10:52;;;;;;;5.72;2.25;;;;;;;6.77;87.15;99027.97;5032000;28;20044;-67
2021/05/05 02:13:21;;;;;;;5.55;1.10;;;;;;;6.89;86.15;99018.44;5053178;28;20147;-67
2021/05/05 02:15:48;;;;;;;6.72;1.45;;;;;;;7.02;85.66;99021.88;5036621;28;20402;-68
2021/05/05 02:18:15;;;;;;;4.63;1.30;;;;;;;7.08;85.41;99029.31;5057963;28;20195;-66
2021/05/05 02:20:42;;;;;;;3.40;1.45;;;;;;;7.09;85.87;99017.88;5057093;28;20121;-67
2021/05/05 02:23:08;;;;;;;3.60;1.40;;;;;;;7.14;85.23;99022.81;5057636;28;20045;-72
2021/05/05 02:25:35;;;;;;;7.07;1.55;;;;;;;7.14;84.15;99018.41;5036572;28;20045;-67
2021/05/05 02:28:02;;;;;;;5.80;1.50;;;;;;;7.08;84.72;99017.06;5060041;28;20410;-68
2021/05/05 02:30:28;;;;;;;7.05;1.50;;;;;;;7.01;85.11;99017.59;5048075;28;20479;-70
2021/05/05 02:32:55;;;;;;;5.75;1.48;;;;;;;7.08;84.79;99018.84;5058931;28;20163;-69
2021/05/05 02:35:22;;;;;;;6.90;1.77;;;;;;;7.11;84.13;99013.38;5032849;28;20045;-68
2021/05/05 02:37:48;;;;;;;7.15;1.77;;;;;;;6.98;85.04;99009.94;5061012;28;20143;-69
2021/05/05 02:40:15;;;;;;;6.85;1.35;;;;;;;6.95;85.04;99011.00;5051107;28;20135;-69
2021/05/05 02:42:43;;;;;;;7.53;2.38;;;;;;;6.85;85.45;99013.44;5046518;28;20463;-68
2021/05/05 02:45:10;;;;;;;4.32;1.42;;;;;;;6.95;84.68;99010.19;5037432;28;20435;-68
2021/05/05 02:47:37;;;;;;;7.60;1.55;;;;;;;6.84;85.28;99010.91;5067363;28;20044;-66
2021/05/05 02:50:05;;;;;;;6.03;1.67;;;;;;;6.83;84.83;99015.31;5063510;28;20078;-68
2021/05/05 02:52:31;;;;;;;7.90;1.77;;;;;;;6.78;84.95;99009.56;5072256;28;20569;-68
2021/05/05 02:54:58;;;;;;;4.47;1.55;;;;;;;6.67;85.70;99006.84;5068952;28;20125;-70
2021/05/05 02:57:25;;;;;;;4.35;1.80;;;;;;;6.54;86.12;99003.41;5050892;28;20374;-68
2021/05/05 02:59:51;;;;;;;5.50;1.77;;;;;;;6.42;86.97;99002.44;5033181;28;20046;-67
2021/05/05 03:02:18;;;;;;;8.30;1.90;;;;;;;6.44;86.52;98984.91;5061711;28;20139;-68
2021/05/05 03:04:45;;;;;;;6.65;1.88;;;;;;;6.38;86.37;98990.53;5053784;28;20107;-68
2021/05/05 03:07:11;;;;;;;13.80;1.85;;;;;;;6.31;86.78;99000.56;5051793;28;20148;-68
2021/05/05 03:09:39;;;;;;;5.57;2.58;;;;;;;6.34;86.52;99002.97;5059430;28;20045;-68
2021/05/05 03:12:06;;;;;;;6.25;1.90;;;;;;;6.26;nan;98996.56;5061617;28;20065;-68
2021/05/05 03:14:33;;;;;;;12.65;2.42;;;;;;;6.16;87.10;99004.19;5058592;28;20057;-68
2021/05/05 03:17:01;;;;;;;5.00;1.58;;;;;;;6.22;87.55;98987.28;5065692;28;20166;-67
2021/05/05 03:19:27;;;;;;;6.03;2.10;;;;;;;6.21;87.62;98999.50;5056202;28;20045;-68
2021/05/05 03:21:55;;;;;;;10.68;2.22;;;;;;;6.12;87.58;98994.88;5042860;28;20040;-68
2021/05/05 03:24:21;;;;;;;5.97;1.50;;;;;;;6.07;87.96;99007.41;5060759;28;20064;-68
2021/05/05 03:26:48;;;;;;;7.60;2.13;;;;;;;6.12;88.25;99005.34;5039046;28;20070;-67
2021/05/05 03:29:16;;;;;;;9.30;2.33;;;;;;;6.08;87.81;98996.88;5051127;28;20153;-68
2021/05/05 03:31:43;;;;;;;5.85;1.60;;;;;;;6.15;88.02;98996.47;5067992;28;20064;-67
2021/05/05 03:34:10;;;;;;;7.07;1.90;;;;;;;6.13;87.77;98993.13;5066065;28;20179;-68
2021/05/05 03:36:37;;;;;;;8.82;2.08;;;;;;;6.27;86.69;98999.09;5053219;28;20511;-68
2021/05/05 03:39:05;;;;;;;5.05;1.60;;;;;;;6.27;87.00;98995.66;5061538;28;20065;-68
2021/05/05 03:41:32;;;;;;;7.20;1.63;;;;;;;6.45;85.95;98989.19;5057503;28;20056;-67
2021/05/05 03:43:59;;;;;;;6.38;1.63;;;;;;;6.55;85.11;98994.63;5052031;28;20202;-69
2021/05/05 03:46:26;;;;;;;6.65;1.70;;;;;;;6.62;84.97;98984.56;5065949;28;20075;-68
2021/05/05 03:48:53;;;;;;;4.47;1.60;;;;;;;6.80;83.48;98986.75;5054085;28;20054;-69
2021/05/05 03:51:19;;;;;;;7.63;1.40;;;;;;;6.83;83.24;98994.38;5054674;28;20370;-68
2021/05/05 03:53:46;;;;;;;8.32;1.67;;;;;;;6.82;83.40;98992.72;5050062;28;20646;-68
2021/05/05 03:56:13;;;;;;;5.32;1.48;;;;;;;6.91;82.59;98990.41;5054705;28;20064;-67
2021/05/05 03:58:40;;;;;;;15.38;1.92;;;;;;;6.95;82.32;98997.94;5049883;28;20561;-68
2021/05/05 04:01:06;;;;;;;5.70;1.52;;;;;;;6.97;81.26;98993.41;5064033;28;20406;-69
2021/05/05 04:03:33;;;;;;;5.22;1.67;;;;;;;7.04;81.21;98992.03;5045870;28;20548;-68
2021/05/05 04:06:00;;;;;;;5.85;1.85;;;;;;;7.08;81.24;98992.69;5042290;28;20148;-68
2021/05/05 04:08:26;;;;;;;7.40;2.13;;;;;;;7.12;80.44;98995.91;5054529;28;20553;-67
2021/05/05 04:10:53;;;;;;;9.57;1.80;;;;;;;7.12;80.06;98998.53;5056218;28;20072;-68
2021/05/05 04:13:20;;;;;;;8.43;1.65;;;;;;;7.13;79.34;98995.81;5053571;28;20064;-69
2021/05/05 04:16:04;;;;;;;4.70;1.65;;;;;;;7.11;79.39;99002.91;5039461;28;20063;-67
2021/05/05 04:18:49;;;;;;;6.05;1.48;;;;;;;7.29;79.10;98998.16;5045546;28;20039;-69
2021/05/05 04:21:34;;;;;;;6.15;1.88;;;;;;;7.32;77.88;98998.78;5058705;28;20094;-69
2021/05/05 04:24:18;;;;;;;6.45;1.85;;;;;;;7.29;78.45;98992.91;5059425;28;20058;-68
2021/05/05 04:26:46;;;;;;;6.25;1.80;;;;;;;7.21;78.00;99000.50;5059634;28;20407;-69
2021/05/05 04:29:13;;;;;;;4.50;1.52;;;;;;;7.27;77.39;98995.66;5055161;28;20057;-69
2021/05/05 04:31:40;;;;;;;4.93;1.70;;;;;;;7.36;76.54;99005.47;5060196;28;20045;-68
2021/05/05 04:34:15;;;;;;;5.73;1.90;;;;;;;7.34;76.22;99002.13;5048262;28;20140;-67
2021/05/05 04:36:42;;;;;;;8.65;1.80;;;;;;;7.39;76.47;99004.41;5046661;28;20436;-67
2021/05/05 04:39:09;;;;;;;4.65;1.45;;;;;;;7.44;75.42;99007.53;5069150;28;20140;-67
2021/05/05 04:41:35;;;;;;;5.43;1.88;;;;;;;7.54;75.19;99010.31;5048823;28;20361;-68
2021/05/05 04:44:03;;;;;;;5.30;1.42;;;;;;;7.51;74.49;99010.53;5056603;28;20147;-69
2021/05/05 04:46:30;;;;;;;5.78;1.63;;;;;;;7.69;74.08;99009.22;5061610;28;20060;-68
2021/05/05 04:48:57;;;;;;;7.05;1.20;;;;;;;8.27;72.79;99012.75;5057272;28;20063;-68
2021/05/05 04:51:23;;;;;;;4.38;1.20;;;;;;;9.74;65.10;99011.81;5066559;28;20052;-69
2021/05/05 04:53:50;;;;;;;3.88;1.13;;;;;;;9.98;63.44;99008.13;5065344;28;20527;-69
2021/05/05 04:56:17;;;;;;;4.53;1.40;;;;;;;9.38;65.71;99019.06;5058946;28;20598;-69
2021/05/05 04:58:43;;;;;;;6.18;1.20;;;;;;;8.91;66.72;99012.28;5056598;28;20098;-68
2021/05/05 05:01:10;;;;;;;3.17;1.00;;;;;;;8.76;67.18;99008.22;5066562;28;20040;-70
2021/05/05 05:03:37;;;;;;;3.42;1.58;;;;;;;8.54;67.65;99014.28;5061696;28;20126;-69
2021/05/05 05:06:03;;;;;;;4.85;1.40;;;;;;;8.58;67.91;99013.09;5037438;28;20059;-69
2021/05/05 05:08:30;;;;;;;14.25;2.95;;;;;;;8.53;67.42;99015.25;5053925;28;20041;-69
2021/05/05 05:10:57;;;;;;;5.63;1.58;;;;;;;8.52;67.09;99011.78;5051777;28;20044;-68
2021/05/05 05:13:24;;;;;;;9.52;1.58;;;;;;;8.41;67.66;99019.63;5038056;28;20063;-69
2021/05/05 05:15:50;;;;;;;5.20;1.58;;;;;;;8.35;67.64;99015.66;5050655;28;20664;-70
2021/05/05 05:18:17;;;;;;;7.00;1.50;;;;;;;8.45;66.42;99018.44;5056448;28;20073;-70
2021/05/05 05:20:44;;;;;;;6.57;1.48;;;;;;;8.52;66.16;99018.81;5046997;28;20402;-68
2021/05/05 05:23:10;;;;;;;7.03;1.52;;;;;;;8.58;66.69;99027.06;5052978;28;20101;-69
2021/05/05 05:25:37;;;;;;;1.83;1.30;;;;;;;8.56;66.11;99023.72;5047961;28;20084;-68
2021/05/05 05:28:04;;;;;;;5.25;1.25;;;;;;;8.60;65.37;99029.53;5056763;28;20556;-69
2021/05/05 05:30:31;;;;;;;4.00;1.40;;;;;;;8.54;66.01;99032.66;5047799;28;20044;-68
2021/05/05 05:32:57;;;;;;;6.25;1.33;;;;;;;8.57;65.87;99030.63;5051338;28;20071;-69
2021/05/05 05:35:25;;;;;;;4.65;1.20;;;;;;;8.73;66.08;99032.91;5079310;23;20072;-76
2021/05/05 05:37:52;;;;;;;6.88;1.27;;;;;;;8.83;65.64;99040.94;5048613;28;20748;-76
2021/05/05 05:40:19;;;;;;;13.05;1.80;;;;;;;8.87;65.09;99035.31;5067211;28;20064;-77
2021/05/05 05:42:45;;;;;;;6.28;1.58;;;;;;;8.78;65.12;99043.03;5056110;28;20077;-76
2021/05/05 05:45:14;;;;;;;5.35;2.25;;;;;;;9.19;64.46;99029.34;5064710;28;20465;-76
2021/05/05 05:47:42;;;;;;;9.75;2.20;;;;;;;9.35;64.28;99028.97;5071303;28;20056;-76
2021/05/05 05:50:10;;;;;;;8.18;1.40;;;;;;;9.18;63.72;99035.53;5067772;28;20078;-75
2021/05/05 05:52:36;;;;;;;7.55;1.90;;;;;;;8.80;64.00;99043.78;5056250;28;20044;-74
2021/05/05 05:55:05;;;;;;;6.80;1.80;;;;;;;8.73;64.19;99038.16;5065224;28;20045;-73
2021/05/05 05:57:32;;;;;;;4.93;1.10;;;;;;;8.61;65.25;99044.34;5044196;28;20048;-76
2021/05/05 05:59:58;;;;;;;4.55;1.50;;;;;;;8.78;65.33;99056.16;5064358;28;20360;-74
2021/05/05 06:02:25;;;;;;;4.75;1.20;;;;;;;8.59;65.88;99048.88;5046950;28;20410;-74
2021/05/05 06:04:52;;;;;;;4.38;1.88;;;;;;;8.51;67.04;99051.22;5058842;28;20084;-73
2021/05/05 06:07:18;;;;;;;3.15;1.55;;;;;;;8.58;66.67;99055.91;5056897;28;20118;-74
2021/05/05 06:09:45;;;;;;;6.03;2.08;;;;;;;8.44;67.61;99060.53;5057301;28;20056;-74
2021/05/05 06:12:12;;;;;;;9.25;1.60;;;;;;;8.68;66.36;99042.09;5068995;28;20083;-76
2021/05/05 06:14:39;;;;;;;3.75;1.63;;;;;;;9.05;64.62;99048.81;5061533;28;20449;-75
2021/05/05 06:17:07;;;;;;;9.10;1.52;;;;;;;9.40;62.33;99045.19;5069619;28;20044;-75
2021/05/05 06:19:34;;;;;;;6.53;2.00;;;;;;;9.71;61.62;99048.00;5065581;28;20052;-75
2021/05/05 06:22:00;;;;;;;5.47;1.58;;;;;;;9.34;62.27;99045.69;5061713;28;20490;-74
2021/05/05 06:24:27;;;;;;;6.18;1.60;;;;;;;9.21;62.68;99031.84;5064997;28;20049;-74
2021/05/05 06:26:54;;;;;;;6.70;1.42;;;;;;;8.82;63.06;99044.47;5077891;28;20529;-76
2021/05/05 06:29:21;;;;;;;4.93;1.25;;;;;;;8.93;63.25;99049.75;5068480;28;20136;-74
2021/05/05 06:31:47;;;;;;;6.57;1.60;;;;;;;9.95;60.06;99040.78;5067618;28;20223;-72
2021/05/05 06:34:14;;;;;;;2.20;1.15;;;;;;;12.92;52.45;99041.09;5065307;28;20068;-71
2021/05/05 06:36:41;;;;;;;6.00;1.88;;;;;;;15.05;45.38;99025.50;5068267;28;20056;-72
2021/05/05 06:39:10;;;;;;;5.28;1.08;;;;;;;14.14;47.54;99031.97;5062863;28;20538;-72
2021/05/05 06:41:40;;;;;;;4.93;1.50;;;;;;;12.83;48.79;99039.31;5062362;28;20049;-74
2021/05/05 06:44:07;;;;;;;10.30;2.05;;;;;;;11.75;52.06;99040.34;5068890;28;20049;-72
2021/05/05 06:46:35;;;;;;;3.97;1.25;;;;;;;11.80;52.51;99042.56;5066221;28;20049;-73
2021/05/05 06:49:02;;;;;;;4.00;1.55;;;;;;;11.04;54.07;99043.03;5046277;28;20337;-72
2021/05/05 06:51:29;;;;;;;21.20;11.88;;;;;;;11.47;52.24;99035.81;5055559;28;20063;-74
2021/05/05 06:53:55;;;;;;;4.18;1.80;;;;;;;12.07;49.89;99040.13;5073088;28;20446;-74
2021/05/05 06:56:22;;;;;;;4.13;1.40;;;;;;;11.84;50.45;99043.97;5043691;28;20057;-72
2021/05/05 06:58:49;;;;;;;5.35;1.38;;;;;;;11.20;51.60;99028.53;5069808;28;20131;-73
2021/05/05 07:01:17;;;;;;;5.63;1.52;;;;;;;11.16;51.51;99028.78;5068497;28;20068;-71
2021/05/05 07:03:44;;;;;;;4.20;1.10;;;;;;;12.20;49.29;99046.91;5072567;28;20056;-73
2021/05/05 07:06:11;;;;;;;7.47;1.23;;;;;;;11.01;53.32;99042.47;5063824;28;20080;-74
2021/05/05 07:08:38;;;;;;;6.97;1.52;;;;;;;10.36;55.05;99040.03;5068756;28;20136;-73
2021/05/05 07:11:05;;;;;;;8.13;2.83;;;;;;;10.18;55.57;99043.28;5064870;28;20045;-72
2021/05/05 07:13:33;;;;;;;4.75;1.60;;;;;;;9.73;56.66;99052.19;5075471;28;20071;-73
2021/05/05 07:16:00;;;;;;;7.45;1.67;;;;;;;9.53;57.93;99045.06;5067324;28;20148;-72
2021/05/05 07:18:27;;;;;;;5.90;1.40;;;;;;;9.70;57.72;99056.84;5074524;28;20053;-73
2021/05/05 07:20:55;;;;;;;5.05;2.15;;;;;;;9.27;59.62;99065.50;5063261;28;20560;-70
2021/05/05 07:23:22;;;;;;;2.65;1.27;;;;;;;9.25;59.20;99064.78;5062981;28;20588;-70
2021/05/05 07:25:49;;;;;;;4.00;1.40;;;;;;;9.12;59.62;99064.91;5069706;28;20131;-71
2021/05/05 07:28:15;;;;;;;5.65;1.45;;;;;;;9.18;59.67;99068.84;5073672;28;20880;-71
2021/05/05 07:30:42;;;;;;;4.40;1.85;;;;;;;9.64;59.04;99069.53;5061455;28;20041;-71
2021/05/05 07:33:11;;;;;;;4.00;1.30;;;;;;;11.09;54.81;99055.81;5071362;28;20136;-70
2021/05/05 07:35:38;;;;;;;5.93;1.55;;;;;;;11.71;53.50;99064.44;5071488;28;20133;-71
2021/05/05 07:38:19;;;;;;;7.53;2.08;;;;;;;12.05;51.17;99062.31;5074094;28;20048;-69
2021/05/05 07:46:25;;;;;;;3.70;1.58;;;;;;;13.25;46.94;99065.34;5058840;28;21082;-71
2021/05/05 07:48:54;;;;;;;3.90;1.20;;;;;;;13.61;45.18;99053.91;5067950;28;20521;-69
2021/05/05 07:51:20;;;;;;;6.25;2.20;;;;;;;13.84;44.95;99046.38;5066419;28;20335;-70
2021/05/05 07:53:47;;;;;;;5.03;1.85;;;;;;;13.65;45.46;99057.91;5064953;28;20443;-70
2021/05/05 07:56:13;;;;;;;2.67;1.20;;;;;;;13.49;46.27;99064.81;5057124;28;20032;-70
2021/05/05 07:58:42;;;;;;;5.15;1.70;;;;;;;17.11;39.77;99058.28;5073673;28;20488;-68
2021/05/05 08:01:09;;;;;;;4.07;1.27;;;;;;;16.71;38.89;99060.03;5070360;28;20072;-70
2021/05/05 08:03:36;;;;;;;4.18;1.50;;;;;;;18.41;35.91;99059.47;5066856;28;20055;-69
2021/05/05 08:06:04;;;;;;;7.10;1.70;;;;;;;17.54;36.57;99050.84;5067170;28;20061;-70
2021/05/05 08:08:31;;;;;;;5.05;2.08;;;;;;;19.54;34.05;99058.50;5065496;28;20072;-71
2021/05/05 08:10:58;;;;;;;3.50;1.40;;;;;;;17.72;34.72;99059.41;5048059;28;20366;-71
2021/05/05 08:13:26;;;;;;;5.97;1.75;;;;;;;16.89;37.11;99070.50;5072640;28;20136;-70
2021/05/05 08:15:54;;;;;;;4.10;1.27;;;;;;;15.47;39.88;99061.78;5064424;28;20066;-70
2021/05/05 08:18:21;;;;;;;4.07;1.50;;;;;;;13.98;43.47;99074.13;5064921;28;20991;-71
2021/05/05 08:20:48;;;;;;;8.23;1.60;;;;;;;13.75;44.53;99064.97;5067730;28;20051;-68
2021/05/05 08:23:17;;;;;;;4.50;1.33;;;;;;;13.26;45.76;99080.22;5068575;28;20048;-71
2021/05/05 08:25:43;;;;;;;4.60;1.40;;;;;;;13.39;44.98;99075.44;5065042;28;20057;-68
2021/05/05 08:28:11;;;;;;;6.80;1.73;;;;;;;15.72;40.04;99062.75;5064010;28;20163;-69
2021/05/05 08:30:39;;;;;;;5.35;1.60;;;;;;;15.14;40.01;99059.81;5065124;28;20075;-69
2021/05/05 08:33:05;;;;;;;13.32;7.13;;;;;;;13.05;45.03;99072.47;5073136;28;20052;-71
2021/05/05 08:35:32;;;;;;;9.60;1.00;;;;;;;13.40;43.79;99070.00;5067980;28;20234;-72
2021/05/05 08:37:59;;;;;;;4.80;1.38;;;;;;;12.65;46.07;99077.03;5068074;28;20048;-72
2021/05/05 08:40:26;;;;;;;4.70;1.20;;;;;;;12.25;47.09;99074.56;5072704;28;20055;-73
2021/05/05 08:42:53;;;;;;;7.05;1.08;;;;;;;12.98;46.23;99072.22;5067676;28;20048;-72
2021/05/05 08:45:24;;;;;;;8.25;2.33;;;;;;;12.39;45.91;99071.50;5067882;28;20048;-71
2021/05/05 08:47:53;;;;;;;3.00;1.40;;;;;;;12.27;46.73;99069.97;5069560;28;20056;-72
2021/05/05 08:50:23;;;;;;;3.40;1.20;;;;;;;12.08;47.43;99068.16;5062919;28;20700;-71
2021/05/05 08:52:50;;;;;;;5.40;1.70;;;;;;;12.16;48.10;99078.88;5068599;28;20049;-71
2021/05/05 08:55:19;;;;;;;3.72;1.40;;;;;;;11.76;49.78;99086.81;5061083;28;20052;-72
2021/05/05 08:57:46;;;;;;;5.57;2.10;;;;;;;11.21;57.35;99098.69;5059314;28;20059;-71
2021/05/05 09:00:16;;;;;;;4.75;1.45;;;;;;;9.85;64.66;99106.38;5069692;28;20406;-71
2021/05/05 09:02:42;;;;;;;4.85;1.77;;;;;;;9.89;65.43;99102.53;5060121;28;20451;-72
2021/05/05 09:05:51;;;;;;;10.60;2.70;;;;;;;9.96;65.62;99097.66;5065400;28;20056;-72
2021/05/05 09:08:20;;;;;;;5.88;1.38;;;;;;;10.46;65.16;99095.34;5058567;28;20130;-72
2021/05/05 09:10:57;;;;;;;5.47;1.50;;;;;;;10.53;62.32;99103.53;5039882;28;20044;-70
2021/05/05 09:13:48;;;;;;;4.32;1.90;;;;;;;10.88;61.32;99092.69;5077286;28;20055;-72
2021/05/05 09:16:20;;;;;;;7.65;1.33;;;;;;;11.36;60.08;99082.41;5056224;28;20218;-69
2021/05/05 09:19:00;;;;;;;5.57;1.60;;;;;;;11.81;55.87;99078.50;5065170;28;20051;-69
2021/05/05 09:21:32;;;;;;;3.42;1.20;;;;;;;12.10;54.45;99079.38;5060298;28;20048;-72
2021/05/05 09:24:22;;;;;;;6.03;1.42;;;;;;;12.31;49.50;99076.63;5057264;28;20116;-71
2021/05/05 09:26:51;;;;;;;3.50;1.10;;;;;;;12.64;49.03;99080.63;5069999;28;20507;-69
2021/05/05 09:29:18;;;;;;;8.38;1.40;;;;;;;12.91;49.69;99074.59;5062611;28;20461;-71
2021/05/05 09:31:45;;;;;;;5.93;1.20;;;;;;;12.99;47.10;99075.69;5060927;28;20140;-69
2021/05/05 09:34:12;;;;;;;7.22;1.40;;;;;;;13.40;45.68;99075.28;5057289;28;20060;-70
2021/05/05 09:36:42;;;;;;;3.10;1.10;;;;;;;13.43;44.25;99074.19;5060747;28;20159;-70
2021/05/05 09:39:10;;;;;;;2.55;0.80;;;;;;;13.40;43.56;99066.53;5062392;28;20057;-69
2021/05/05 09:41:42;;;;;;;2.58;1.45;;;;;;;12.67;43.51;99088.28;5063067;28;20102;-74
2021/05/05 09:44:09;;;;;;;1.98;1.00;;;;;;;13.41;41.96;99076.13;5064510;28;20065;-73
2021/05/05 09:46:43;;;;;;;5.28;0.70;;;;;;;13.17;42.28;99066.03;5070421;28;20052;-73
2021/05/05 09:49:20;;;;;;;4.85;1.02;;;;;;;13.12;42.44;99061.19;5060425;28;20049;-73
2021/05/05 09:51:56;;;;;;;1.65;0.70;;;;;;;13.66;41.69;99071.97;5072248;28;20040;-74
2021/05/05 09:54:24;;;;;;;7.47;1.02;;;;;;;13.42;42.31;99067.22;5068904;28;20359;-75
2021/05/05 09:56:51;;;;;;;1.63;0.90;;;;;;;12.77;43.48;99074.22;5065959;28;20090;-72
2021/05/05 09:59:19;;;;;;;2.95;0.93;;;;;;;12.05;44.46;99073.69;5066136;28;20056;-73
2021/05/05 10:01:59;;;;;;;2.08;1.08;;;;;;;10.81;55.34;99116.09;5071261;28;20062;-74
2021/05/05 10:04:26;;;;;;;4.03;1.00;;;;;;;9.84;64.99;99122.28;5044857;28;20053;-74
2021/05/05 10:07:00;;;;;;;1.65;1.08;;;;;;;9.27;67.03;99142.47;5056743;28;20048;-74
2021/05/05 10:09:27;;;;;;;3.38;1.10;;;;;;;9.00;69.66;99131.47;5069299;28;20121;-74
2021/05/05 10:11:54;;;;;;;5.80;1.83;;;;;;;8.53;72.67;99126.22;5039011;28;20040;-75
2021/05/05 10:14:21;;;;;;;2.25;1.40;;;;;;;8.58;73.33;99126.72;5083883;28;20211;-73
2021/05/05 10:16:51;;;;;;;4.53;1.35;;;;;;;9.08;72.61;99124.69;5085339;28;20087;-72
2021/05/05 10:19:25;;;;;;;5.57;1.88;;;;;;;9.75;68.64;99105.44;5077421;28;20041;-72
2021/05/05 10:21:59;;;;;;;6.40;1.67;;;;;;;10.26;65.28;99115.38;5062789;28;20098;-73
2021/05/05 10:24:27;;;;;;;2.75;1.55;;;;;;;10.42;63.06;99114.97;5071951;28;20074;-74
2021/05/05 10:26:56;;;;;;;4.85;1.48;;;;;;;10.64;61.62;99109.59;5065609;28;20107;-74
2021/05/05 10:29:23;;;;;;;2.55;1.30;;;;;;;11.01;63.60;99106.50;5065235;28;20053;-74
2021/05/05 10:31:55;;;;;;;4.05;1.70;;;;;;;11.58;63.22;99109.53;5058495;28;20159;-74
2021/05/05 10:34:25;;;;;;;6.65;3.15;;;;;;;11.91;62.71;99109.22;5064299;28;20407;-74
2021/05/05 10:36:59;;;;;;;18.77;4.63;;;;;;;11.86;61.04;99116.72;5065947;28;20056;-74
2021/05/05 10:39:40;;;;;;;12.02;2.95;;;;;;;11.85;59.02;99117.69;5069519;28;20052;-74
2021/05/05 10:42:17;;;;;;;2.35;1.40;;;;;;;12.05;56.04;99109.78;5072351;28;20047;-73
2021/05/05 10:44:54;;;;;;;7.43;1.45;;;;;;;12.44;56.77;99108.03;5062244;28;20200;-73
2021/05/05 10:47:22;;;;;;;2.70;1.40;;;;;;;12.14;56.04;99107.16;5048294;28;20136;-74
2021/05/05 10:49:58;;;;;;;5.18;2.00;;;;;;;12.86;54.30;99100.59;5070014;28;20045;-72
2021/05/05 10:52:25;;;;;;;;;;;;;;;12.63;51.72;99105.38;5059165;28;20047;-75
2021/05/05 10:54:56;;;;;;;2.65;1.30;;;;;;;12.82;53.11;99096.56;5058230;28;19947;-74
2021/05/05 10:57:24;;;;;;;3.45;0.88;;;;;;;12.56;49.29;99093.72;5061269;28;20211;-73
2021/05/05 10:59:57;;;;;;;5.88;1.15;;;;;;;12.53;48.71;99106.34;5070669;28;20147;-75
2021/05/05 11:02:40;;;;;;;5.55;0.80;;;;;;;12.75;47.64;99110.50;5061191;28;20479;-72
2021/05/05 11:05:14;;;;;;;1.90;0.90;;;;;;;13.05;46.94;99105.00;5068435;28;20051;-76
2021/05/05 11:07:48;;;;;;;6.20;1.00;;;;;;;13.17;46.53;99111.78;5069265;28;20063;-73
2021/05/05 11:10:33;;;;;;;5.72;1.05;;;;;;;13.10;45.29;99107.22;5070213;28;20076;-73
2021/05/05 11:13:04;;;;;;;6.85;0.77;;;;;;;13.07;44.40;99107.53;5071708;28;20048;-74
2021/05/05 11:15:45;;;;;;;2.00;0.73;;;;;;;12.85;45.10;99108.69;5046050;28;20461;-73
2021/05/05 11:18:24;;;;;;;6.68;1.02;;;;;;;13.59;44.22;99115.81;5067065;28;20123;-74
2021/05/05 11:21:06;;;;;;;19.55;1.48;;;;;;;12.57;45.26;99111.22;5074187;28;20051;-74
2021/05/05 11:23:33;;;;;;;2.17;0.70;;;;;;;12.97;45.09;99119.91;5085975;28;20116;-74
2021/05/05 11:26:25;;;;;;;4.70;0.88;;;;;;;12.67;45.31;99113.84;5076755;28;20044;-75
2021/05/05 11:29:08;;;;;;;3.15;1.15;;;;;;;12.68;45.87;99126.06;5074058;28;20052;-74
2021/05/05 11:31:47;;;;;;;3.70;0.70;;;;;;;12.90;45.99;99130.22;5074716;28;20076;-76
2021/05/05 11:34:22;;;;;;;4.30;0.77;;;;;;;12.92;44.87;99120.31;5072849;28;20056;-73
2021/05/05 11:37:15;;;;;;;3.28;1.17;;;;;;;12.43;43.98;99116.91;5084166;22;20052;-70
2021/05/05 11:39:50;;;;;;;2.15;0.70;;;;;;;11.97;43.43;99131.56;5033140;28;20144;-72
2021/05/05 11:42:23;;;;;;;7.03;0.77;;;;;;;12.49;42.06;99115.53;5034485;28;20099;-72
2021/05/05 11:45:13;;;;;;;7.20;0.70;;;;;;;13.30;39.97;99121.25;5025878;28;20053;-70
2021/05/05 11:47:43;;;;;;;2.15;0.55;;;;;;;13.30;39.77;99123.88;5030800;28;20127;-70
2021/05/05 11:50:25;;;;;;;5.95;0.77;;;;;;;13.22;39.48;99118.44;5028841;28;20502;-71
2021/05/05 11:52:54;;;;;;;10.25;0.98;;;;;;;13.25;39.79;99105.81;5016592;28;20475;-72